• Join FlightAware (Why Join?)
  • Login
  • US Flag 
07:00AM EST


 

Airport Tracker/Info


-or-


 

Live Flight TrackerFlight Track Log ✈ AAL1079 ✈ 26-Jul-2013 ✈ KRDU - KDFW

Flight Track Log - Related Links

Times and Time Zones

All times are in EDT time to prevent confusion due to time zone crossing. See the AAL1079 flight status page for this flight to view local times or setup timezone preferences in your user account.

Time Position Orientation Groundspeed Altitude Reporting Facility
EDT Latitude Longitude Course Direction KTS MPH feet Rate Location/Type
07:39PM 35.8989 -78.7742 258° West 198 228 1,100  Level Washington Center
07:40PM 35.9617 -78.7639 North 246 283 3,000 2,186 Climbing Washington Center
07:41PM 35.8400 -79.1903 265° West  Level FlightAware Approximate
07:41PM 35.9822 -78.8519 286° West 279 321 6,200  Level Washington Center
07:42PM 35.8304 -79.3266 262° West  Level FlightAware Approximate
07:43PM 35.8167 -79.4622 270° West  Level FlightAware Approximate
07:43PM 35.9253 -79.0292 248° West 288 331 10,900  Level Washington Center
07:44PM 35.7926 -79.5776 258° West  Level FlightAware Approximate
07:44PM 35.8842 -79.1478 247° West 333 383 12,900  Level Washington Center
07:46PM 35.8242 -79.3878 253° West 379 436 17,000 1,989 Climbing Atlanta Center
07:47PM 35.8167 -79.5214 266° West 390 449 18,800 1,950 Climbing Atlanta Center
07:48PM 35.7908 -79.6714 258° West 401 461 20,900 1,800 Climbing Atlanta Center
07:49PM 35.7700 -79.7953 258° West 406 467 22,400 1,600 Climbing Atlanta Center
07:50PM 35.7458 -79.9397 258° West 414 476 24,100 1,600 Climbing Atlanta Center
07:51PM 35.7233 -80.0817 259° West 424 488 25,600 1,500 Climbing Atlanta Center
07:52PM 35.7050 -80.2283 261° West 430 495 27,100 1,450 Climbing Atlanta Center
07:53PM 35.6869 -80.3903 262° West 438 504 28,500 1,350 Climbing Atlanta Center
07:54PM 35.6661 -80.5369 260° West 438 504 29,800 750 Climbing Atlanta Center
07:55PM 35.6475 -80.6858 261° West 438 504 30,000 100 Climbing Atlanta Center
07:56PM 35.6264 -80.8322 260° West 444 511 30,000  Level Atlanta Center
07:57PM 35.6050 -80.9839 260° West 444 511 30,000  Level Atlanta Center
07:58PM 35.5856 -81.1175 260° West 444 511 30,000 50 Level Atlanta Center
07:59PM 35.5622 -81.2817 260° West 449 517 30,100 650 Climbing Atlanta Center
08:00PM 35.5428 -81.4456 262° West 457 526 31,300 950 Climbing Atlanta Center
08:01PM 35.5228 -81.5892 260° West 454 522 32,000 350 Climbing Atlanta Center
08:02PM 35.5025 -81.7325 260° West 442 509 32,000  Level Atlanta Center
08:03PM 35.4822 -81.8786 260° West 442 509 32,000  Level Atlanta Center
08:04PM 35.4597 -82.0269 259° West 442 509 32,000  Level Atlanta Center
08:05PM 35.4392 -82.1753 260° West 442 509 32,000 -100 Level Atlanta Center
08:06PM 35.4181 -82.3033 259° West 442 509 31,800 -750 Descending Atlanta Center
08:07PM 35.3992 -82.4514 261° West 442 509 30,500 -900 Descending Atlanta Center
08:08PM 35.3758 -82.5944 259° West 442 509 30,000 -250 Descending Atlanta Center
08:09PM 35.3525 -82.7400 259° West 442 509 30,000  Level Atlanta Center
08:10PM 35.3311 -82.8906 260° West 442 509 30,000  Level Atlanta Center
08:11PM 35.3242 -83.0536 267° West 447 514 30,000  Level Atlanta Center
08:12PM 35.3525 -83.2061 283° West 445 512 30,000  Level Atlanta Center
08:13PM 35.3783 -83.3383 284° West 445 512 30,000  Level Atlanta Center
08:14PM 35.4000 -83.4858 280° West 445 512 30,000  Level Atlanta Center
08:15PM 35.4297 -83.6283 284° West 450 518 30,000  Level Atlanta Center
08:16PM 35.4572 -83.7761 283° West 450 518 30,000  Level Atlanta Center
08:17PM 35.4844 -83.9189 283° West 450 518 30,000  Level Atlanta Center
08:18PM 35.5117 -84.0694 283° West 450 518 30,000  Level Atlanta Center
08:19PM 35.5200 -84.2175 274° West 450 518 30,000  Level Atlanta Center
08:20PM 35.4467 -84.3369 233° Southwest 413 475 30,000  Level Atlanta Center
08:21PM 35.3669 -84.4514 230° Southwest 421 484 30,000  Level Atlanta Center
08:22PM 35.2872 -84.5681 230° Southwest 441 507 30,000  Level Atlanta Center
08:23PM 35.2117 -84.6869 232° Southwest 454 522 30,000  Level Atlanta Center
08:24PM 35.1358 -84.8033 231° Southwest 454 522 30,000  Level Atlanta Center
08:25PM 35.0558 -84.9242 231° Southwest 454 522 30,000  Level Atlanta Center
08:26PM 34.9964 -85.0506 240° Southwest 448 516 30,000  Level Atlanta Center
08:27PM 35.0014 -85.2025 272° West 428 493 30,000  Level Atlanta Center
08:28PM 35.0103 -85.3550 274° West 442 509 30,000  Level Atlanta Center
08:29PM 35.0211 -85.5022 275° West 442 509 30,000  Level Atlanta Center
08:30PM 35.0339 -85.6547 276° West 442 509 30,000  Level Atlanta Center
08:31PM 35.0464 -85.8019 276° West 447 514 30,000  Level Atlanta Center
08:32PM 35.0525 -85.9569 273° West 447 514 30,000  Level Atlanta Center
08:33PM 35.0667 -86.1119 276° West 441 507 30,000  Level Atlanta Center
08:34PM 35.0767 -86.2569 275° West 435 501 30,000  Level Atlanta Center
08:35PM 35.0864 -86.4044 275° West 440 506 30,000  Level Atlanta Center
08:36PM 35.0936 -86.5122 275° West 440 506 30,000  Level Memphis Center
08:37PM 35.1069 -86.6742 276° West 450 518 30,000  Level Memphis Center
08:38PM 35.1217 -86.8233 277° West 445 512 30,000  Level Memphis Center
08:39PM 35.1378 -86.9494 279° West 435 501 30,000 100 Level Memphis Center
08:40PM 35.1522 -87.0961 277° West 435 501 30,200 750 Climbing Memphis Center
08:41PM 35.1706 -87.2428 279° West 435 501 31,500 1,250 Climbing Memphis Center
08:42PM 35.1886 -87.3844 279° West 435 501 32,700 1,150 Climbing Memphis Center
08:43PM 35.2044 -87.5236 278° West 430 495 33,800 650 Climbing Memphis Center
08:44PM 35.2200 -87.6603 278° West 424 488 34,000 100 Climbing Memphis Center
08:45PM 35.2356 -87.8022 278° West 424 488 34,000  Level Memphis Center
08:46PM 35.2528 -87.9442 278° West 424 488 34,000  Level Memphis Center
08:47PM 35.2703 -88.0833 279° West 424 488 34,000  Level Memphis Center
08:48PM 35.2789 -88.2256 274° West 424 488 34,000  Level Memphis Center
08:49PM 35.2833 -88.3628 272° West 424 488 34,000  Level Memphis Center
08:50PM 35.2900 -88.5178 273° West 413 475 34,000  Level Memphis Center
08:51PM 35.2939 -88.6578 272° West 413 475 34,000  Level Memphis Center
08:52PM 35.3000 -88.8025 273° West 419 482 34,000  Level Memphis Center
08:53PM 35.3058 -88.9297 273° West 419 482 34,000  Level Memphis Center
08:54PM 35.3114 -89.0694 273° West 419 482 34,000  Level Memphis Center
08:55PM 35.3169 -89.2094 273° West 419 482 34,000  Level Memphis Center
08:56PM 35.3203 -89.3519 272° West 419 482 34,000  Level Memphis Center
08:57PM 35.3275 -89.4917 274° West 419 482 34,000  Level Memphis Center
08:58PM 35.3328 -89.6317 273° West 419 482 34,000  Level Memphis Center
08:59PM 35.3375 -89.7692 272° West 414 476 34,000  Level Memphis Center
09:00PM 35.3425 -89.9092 273° West 414 476 34,000  Level Memphis Center
09:01PM 35.3450 -90.0464 271° West 414 476 34,000  Level Memphis Center
09:02PM 35.3472 -90.1789 271° West 403 464 34,000  Level Memphis Center
09:03PM 35.3517 -90.3189 272° West 403 464 34,000  Level Memphis Center
09:04PM 35.3556 -90.4664 272° West 403 464 34,000  Level Memphis Center
09:05PM 35.3575 -90.6039 271° West 403 464 34,000  Level Memphis Center
09:06PM 35.3594 -90.7389 271° West 398 458 34,000  Level Memphis Center
09:07PM 35.3631 -90.8764 272° West 404 465 34,000  Level Memphis Center
09:08PM 35.3667 -91.0114 272° West 404 465 34,000  Level Memphis Center
09:09PM 35.3681 -91.1311 271° West 404 465 34,000  Level Memphis Center
09:10PM 35.3692 -91.2686 271° West 404 465 34,000  Level Memphis Center
09:11PM 35.3744 -91.4061 273° West 404 465 34,000  Level Memphis Center
09:12PM 35.3750 -91.5461 270° West 404 465 34,000  Level Memphis Center
09:13PM 35.3758 -91.6914 270° West 409 471 34,000  Level Memphis Center
09:14PM 35.3783 -91.8314 271° West 419 482 34,000  Level Memphis Center
09:15PM 35.3808 -91.9717 271° West 419 482 34,000  Level Memphis Center
09:16PM 35.3811 -92.1117 270° West 419 482 34,000  Level Memphis Center
09:17PM 35.3853 -92.2492 272° West 419 482 34,000  Level Memphis Center
09:18PM 35.3831 -92.3892 269° West 419 482 34,000  Level Memphis Center
09:19PM 35.3850 -92.5244 271° West 413 475 34,000  Level Memphis Center
09:20PM 35.3867 -92.6619 271° West 408 470 34,000  Level Memphis Center
09:21PM 35.3861 -92.7969 270° West 408 470 34,000  Level Memphis Center
09:22PM 35.3897 -92.9369 272° West 403 464 34,000  Level Memphis Center
09:23PM 35.3908 -93.0797 271° West 403 464 34,000  Level Memphis Center
09:24PM 35.3919 -93.2122 271° West 403 464 34,000  Level Memphis Center
09:25PM 35.3908 -93.3522 269° West 409 471 34,000  Level Memphis Center
09:26PM 35.3892 -93.4997 269° West 399 459 34,000  Level Memphis Center
09:27PM 35.3900 -93.6347 270° West 404 465 34,000  Level Memphis Center
09:28PM 35.3553 -93.7633 252° West 395 455 34,000  Level Memphis Center
09:29PM 35.3056 -93.8936 245° Southwest 406 467 34,000  Level Memphis Center
09:30PM 35.2581 -94.0214 246° West 406 467 34,000  Level Memphis Center
09:31PM 35.2125 -94.1489 246° West 411 473 34,000  Level Memphis Center
09:32PM 35.1650 -94.2736 245° Southwest 416 479 34,000  Level Memphis Center
09:33PM 35.1169 -94.4036 246° West 416 479 34,000  Level Memphis Center
09:34PM 35.0689 -94.5306 245° Southwest 416 479 34,000  Level Memphis Center
09:35PM 35.0281 -94.6300 243° Southwest 416 479 34,000  Level Memphis Center
09:36PM 34.9219 -94.7800 229° Southwest 414 476 34,000  Level Fort Worth Center
09:37PM 34.8197 -94.8894 221° Southwest 429 494 34,000  Level Fort Worth Center
09:38PM 34.7278 -94.9881 221° Southwest 429 494 34,000  Level Fort Worth Center
09:39PM 34.6358 -95.0867 221° Southwest 443 510 34,000  Level Fort Worth Center
09:40PM 34.5458 -95.1847 222° Southwest 443 510 34,000  Level Fort Worth Center
09:41PM 34.4558 -95.2803 221° Southwest 443 510 34,000  Level Fort Worth Center
09:42PM 34.3592 -95.3783 220° Southwest 449 517 34,000  Level Fort Worth Center
09:43PM 34.2711 -95.4708 221° Southwest 444 511 34,000  Level Fort Worth Center
09:44PM 34.1808 -95.5683 222° Southwest 444 511 34,000  Level Fort Worth Center
09:45PM 34.0964 -95.6528 220° Southwest 444 511 34,000 -200 Level Fort Worth Center
09:46PM 33.9997 -95.7550 221° Southwest 439 505 33,600 -1,500 Descending Fort Worth Center
09:47PM 33.9069 -95.8519 221° Southwest 434 499 31,000 -2,450 Descending Fort Worth Center
09:48PM 33.8142 -95.9486 221° Southwest 444 511 28,700 -2,650 Descending Fort Worth Center
09:49PM 33.7214 -96.0450 221° Southwest 444 511 25,700 -3,050 Descending Fort Worth Center
09:50PM 33.6306 -96.1386 221° Southwest 444 511 22,600 -2,700 Descending Fort Worth Center
09:51PM 33.5500 -96.2219 221° Southwest 438 504 20,300 -2,350 Descending Fort Worth Center
09:52PM 33.4653 -96.3228 225° Southwest 408 470 17,900 -2,100 Descending Fort Worth Center
09:53PM 33.3972 -96.4033 225° Southwest 385 443 16,100 -2,200 Descending Fort Worth Center
09:54PM 33.3186 -96.4986 225° Southwest 372 428 13,500 -2,250 Descending Fort Worth Center
09:55PM 33.2439 -96.5839 224° Southwest 372 428 11,600 -1,250 Descending Fort Worth Center
09:56PM 33.1858 -96.6539 225° Southwest 352 405 11,000 -300 Descending Fort Worth Center
09:57PM 33.1133 -96.7414 225° Southwest 342 394 11,000  Level Fort Worth Center
09:58PM 33.0833 -96.7833 230° Southwest 340 391 11,000  Level Dallas / Fort Worth TRACON
09:59PM 33.0167 -96.8333 212° Southwest 276 318 11,000  Level Dallas / Fort Worth TRACON
10:00PM 32.9667 -96.9000 228° Southwest 258 297 11,000 -238 Level Dallas / Fort Worth TRACON
10:01PM 32.9000 -96.9000 180° South 267 307 10,500 -1,128 Descending Dallas / Fort Worth TRACON
10:02PM 32.8167 -96.9000 180° South 249 287 8,800 -1,714 Descending Dallas / Fort Worth TRACON
10:03PM 32.7500 -96.9000 180° South 234 269 7,100 -1,805 Descending Dallas / Fort Worth TRACON
10:04PM 32.6833 -96.9167 192° South 235 270 5,100 -1,525 Descending Dallas / Fort Worth TRACON
10:05PM 32.6833 -96.9833 270° West 229 264 4,100 -579 Descending Dallas / Fort Worth TRACON
10:06PM 32.6833 -97.0333 270° West 201 231 4,000 -421 Descending Dallas / Fort Worth TRACON
10:07PM 32.7333 -97.0333 360° North 188 216 3,300 -878 Descending Dallas / Fort Worth TRACON
10:08PM 32.8000 -97.0167 12° North 174 200 2,200 -857 Descending Dallas / Fort Worth TRACON
10:09PM 32.8333 -97.0167 360° North 135 155 1,500 -694 Descending Dallas / Fort Worth TRACON
10:10PM 32.8667 -97.0167 360° North 131 151 800 -689 Descending Dallas / Fort Worth TRACON